createdAt,value
2018-03-03T00:01:08.540Z,52.63
2018-03-03T00:03:37.263Z,52.93
2018-03-03T00:06:04.722Z,52.00
2018-03-03T00:08:32.978Z,48.80
2018-03-03T00:11:02.340Z,49.07
2018-03-03T00:13:29.797Z,48.70
2018-03-03T00:15:57.257Z,47.80
2018-03-03T00:18:25.376Z,48.03
2018-03-03T00:20:52.831Z,47.00
2018-03-03T00:23:20.728Z,49.67
2018-03-03T00:25:48.207Z,47.83
2018-03-03T00:28:15.661Z,46.07
2018-03-03T00:30:43.125Z,47.57
2018-03-03T00:33:10.996Z,45.57
2018-03-03T00:35:39.641Z,47.53
2018-03-03T00:38:07.109Z,46.53
2018-03-03T00:40:35.745Z,47.70
2018-03-03T00:43:03.641Z,48.53
2018-03-03T00:45:31.108Z,46.73
2018-03-03T00:47:58.562Z,47.00
2018-03-03T00:50:26.022Z,49.30
2018-03-03T00:52:53.483Z,49.17
2018-03-03T00:55:20.946Z,49.63
2018-03-03T00:57:48.667Z,47.50
2018-03-03T01:00:16.154Z,48.90
2018-03-03T01:02:44.161Z,48.00
2018-03-03T01:05:12.386Z,47.50
2018-03-03T01:07:39.862Z,47.20
2018-03-03T01:10:07.323Z,48.33
2018-03-03T01:12:34.790Z,48.83
2018-03-03T01:15:02.265Z,49.90
2018-03-03T01:17:30.760Z,48.63
2018-03-03T01:19:58.978Z,50.20
2018-03-03T01:22:26.446Z,50.07
2018-03-03T01:24:53.953Z,48.90
2018-03-03T01:27:21.358Z,49.23
2018-03-03T01:29:51.378Z,49.27
2018-03-03T01:32:19.102Z,50.30
2018-03-03T01:34:46.563Z,49.73
2018-03-03T01:37:14.014Z,51.40
2018-03-03T01:39:41.485Z,49.90
2018-03-03T01:42:08.938Z,50.47
2018-03-03T01:44:36.403Z,51.00
2018-03-03T01:47:03.865Z,48.67
2018-03-03T01:49:31.338Z,50.67
2018-03-03T01:51:58.798Z,53.77
2018-03-03T01:54:26.261Z,53.00
2018-03-03T01:56:55.320Z,52.17
2018-03-03T01:59:22.777Z,53.80
2018-03-03T02:01:50.497Z,53.77
2018-03-03T02:04:18.721Z,53.40
2018-03-03T02:06:46.181Z,55.43
2018-03-03T02:09:13.645Z,54.77
2018-03-03T02:11:41.670Z,51.10
2018-03-03T02:14:10.429Z,51.87
2018-03-03T02:16:38.655Z,52.33
2018-03-03T02:19:06.666Z,55.70
2018-03-03T02:21:34.906Z,50.43
2018-03-03T02:24:03.671Z,51.30
2018-03-03T02:26:31.397Z,50.53
2018-03-03T02:28:59.617Z,49.77
2018-03-03T02:31:27.072Z,51.20
2018-03-03T02:33:54.536Z,53.73
2018-03-03T02:36:21.997Z,53.07
2018-03-03T02:38:49.462Z,52.73
2018-03-03T02:41:16.929Z,52.33
2018-03-03T02:43:44.376Z,51.20
2018-03-03T02:46:11.833Z,51.87
2018-03-03T02:48:39.290Z,54.07
2018-03-03T02:51:07.157Z,51.10
2018-03-03T02:53:34.618Z,52.03
2018-03-03T02:56:02.901Z,52.90
2018-03-03T02:58:31.959Z,50.63
2018-03-03T03:00:59.413Z,54.43
2018-03-03T03:03:26.874Z,51.97
2018-03-03T03:05:55.130Z,52.80
2018-03-03T03:08:22.645Z,52.17
2018-03-03T03:10:50.874Z,53.43
2018-03-03T03:13:18.329Z,53.07
2018-03-03T03:15:46.638Z,55.13
2018-03-03T03:18:14.325Z,55.47
2018-03-03T03:20:42.547Z,54.03
2018-03-03T03:23:10.014Z,54.27
2018-03-03T03:25:37.487Z,51.60
2018-03-03T03:28:04.941Z,52.67
2018-03-03T03:30:32.813Z,52.33
2018-03-03T03:33:01.688Z,53.57
2018-03-03T03:35:31.609Z,56.30
2018-03-03T03:37:59.758Z,55.90
2018-03-03T03:40:27.581Z,51.87
2018-03-03T03:42:55.054Z,54.97
2018-03-03T03:45:22.518Z,54.30
2018-03-03T03:47:49.970Z,55.43
2018-03-03T03:50:17.441Z,54.73
2018-03-03T03:52:46.066Z,55.40
2018-03-03T03:55:13.513Z,52.67
2018-03-03T03:57:40.970Z,52.33
2018-03-03T04:00:08.428Z,54.20
2018-03-03T04:02:35.890Z,52.63
2018-03-03T04:05:04.129Z,51.50
2018-03-03T04:07:31.586Z,53.10
2018-03-03T04:09:59.042Z,53.93
2018-03-03T04:12:26.936Z,52.83
2018-03-03T04:14:54.392Z,55.53
2018-03-03T04:17:21.865Z,55.80
2018-03-03T04:19:50.094Z,53.93
2018-03-03T04:22:17.554Z,53.53
2018-03-03T04:24:45.078Z,53.07
2018-03-03T04:27:12.532Z,53.77
2018-03-03T04:29:40.421Z,54.63
2018-03-03T04:32:08.457Z,52.83
2018-03-03T04:34:36.182Z,53.70
2018-03-03T04:37:03.639Z,52.00
2018-03-03T04:39:31.088Z,53.17
2018-03-03T04:41:58.554Z,53.40
2018-03-03T04:44:26.321Z,52.67
2018-03-03T04:46:54.938Z,54.77
2018-03-03T04:49:23.163Z,55.37
2018-03-03T04:51:50.628Z,55.30
2018-03-03T04:54:18.087Z,57.93
2018-03-03T04:56:45.542Z,54.13
2018-03-03T04:59:28.827Z,55.50
2018-03-03T05:02:07.438Z,54.13
2018-03-03T05:04:44.139Z,53.67
2018-03-03T05:10:14.392Z,53.93
2018-03-03T05:12:42.629Z,53.73
2018-03-03T05:15:19.993Z,54.13
2018-03-03T05:17:53.255Z,54.97
2018-03-03T05:23:29.840Z,52.57
2018-03-03T05:26:02.995Z,52.60
2018-03-03T05:31:51.164Z,54.00
2018-03-03T05:34:24.850Z,54.93
2018-03-03T05:37:12.225Z,53.50
2018-03-03T05:42:46.153Z,53.23
2018-03-03T05:45:16.217Z,53.30
2018-03-03T05:47:58.563Z,51.47
2018-03-03T05:50:31.764Z,56.77
2018-03-03T05:53:04.814Z,55.60
2018-03-03T05:55:38.054Z,54.87
2018-03-03T05:58:11.920Z,55.77
2018-03-03T06:00:45.033Z,54.17
2018-03-03T06:06:30.973Z,55.83
2018-03-03T06:08:58.429Z,52.97
2018-03-03T06:11:25.885Z,51.53
2018-03-03T06:13:53.795Z,53.70
2018-03-03T06:16:21.253Z,57.27
2018-03-03T06:18:50.194Z,57.23
2018-03-03T06:21:18.418Z,54.53
2018-03-03T06:23:46.380Z,58.17
2018-03-03T06:26:14.386Z,54.80
2018-03-03T06:28:41.866Z,56.43
2018-03-03T06:31:09.902Z,56.53
2018-03-03T06:33:37.373Z,56.20
2018-03-03T06:36:06.214Z,53.50
2018-03-03T06:38:34.199Z,53.37
2018-03-03T06:41:02.042Z,53.67
2018-03-03T06:43:29.490Z,51.00
2018-03-03T06:45:56.966Z,52.20
2018-03-03T06:48:24.422Z,52.50
2018-03-03T06:50:51.884Z,51.43
2018-03-03T06:53:20.086Z,50.70
2018-03-03T06:55:47.542Z,51.50
2018-03-03T06:58:15.350Z,52.10
2018-03-03T07:00:43.222Z,51.53
2018-03-03T07:03:11.001Z,47.43
2018-03-03T07:08:14.017Z,48.90
2018-03-03T07:10:41.513Z,49.67
2018-03-03T07:13:09.740Z,47.67
2018-03-03T07:15:39.211Z,49.57
2018-03-03T07:18:07.121Z,45.80
2018-03-03T07:20:35.200Z,47.10
2018-03-03T07:23:03.218Z,47.40
2018-03-03T07:25:31.109Z,48.07
2018-03-03T07:27:58.561Z,46.67
2018-03-03T07:30:26.029Z,48.07
2018-03-03T07:32:53.477Z,46.97
2018-03-03T07:35:20.957Z,46.47
2018-03-03T07:37:48.424Z,47.43
2018-03-03T07:40:16.306Z,47.57
2018-03-03T07:42:44.529Z,43.83
2018-03-03T07:45:12.009Z,46.67
2018-03-03T07:47:40.009Z,45.40
2018-03-03T07:50:08.233Z,45.37
2018-03-03T07:52:36.254Z,45.27
2018-03-03T07:55:05.037Z,46.20
2018-03-03T07:57:33.267Z,44.10
2018-03-03T08:00:00.719Z,45.60
2018-03-03T08:02:28.176Z,46.07
2018-03-03T08:04:55.882Z,44.13
2018-03-03T08:07:24.106Z,46.27
2018-03-03T08:09:51.964Z,45.23
2018-03-03T08:12:19.409Z,43.57
2018-03-03T08:14:47.277Z,43.20
2018-03-03T08:17:15.198Z,44.70
2018-03-03T08:19:42.646Z,45.10
2018-03-03T08:22:10.117Z,41.37
2018-03-03T08:24:39.073Z,41.27
2018-03-03T08:27:06.527Z,43.37
2018-03-03T08:29:34.547Z,44.27
2018-03-03T08:32:02.757Z,42.27
2018-03-03T08:34:30.205Z,42.53
2018-03-03T08:37:00.254Z,43.23
2018-03-03T08:39:27.713Z,44.53
2018-03-03T08:41:55.184Z,44.57
2018-03-03T08:44:23.083Z,44.07
2018-03-03T08:46:50.528Z,44.13
2018-03-03T08:49:18.756Z,44.20
2018-03-03T08:51:46.207Z,43.57
2018-03-03T08:54:13.662Z,43.40
2018-03-03T08:56:41.117Z,45.03
2018-03-03T08:59:08.577Z,45.57
2018-03-03T09:01:36.033Z,45.53
2018-03-03T09:04:04.262Z,47.00
2018-03-03T09:06:32.487Z,47.43
2018-03-03T09:08:59.933Z,44.47
2018-03-03T09:11:27.972Z,49.07
2018-03-03T09:13:55.426Z,47.37
2018-03-03T09:16:22.886Z,48.20
2018-03-03T09:18:50.882Z,46.83
2018-03-03T09:21:18.345Z,46.23
2018-03-03T09:23:46.617Z,56.30
2018-03-03T09:26:14.081Z,54.07
2018-03-03T09:28:41.531Z,45.93
2018-03-03T09:31:08.978Z,45.80
2018-03-03T09:33:36.469Z,48.80
2018-03-03T09:36:03.963Z,46.33
2018-03-03T09:38:31.369Z,43.03
2018-03-03T09:40:58.820Z,43.03
2018-03-03T09:43:27.526Z,45.87
2018-03-03T09:45:54.974Z,44.50
2018-03-03T09:48:23.869Z,45.37
2018-03-03T09:50:51.326Z,44.80
2018-03-03T09:53:18.792Z,44.93
2018-03-03T09:55:47.023Z,46.33
2018-03-03T09:58:14.910Z,46.43
2018-03-03T10:00:42.936Z,45.80
2018-03-03T10:03:10.386Z,46.30
2018-03-03T10:05:38.460Z,45.63
2018-03-03T10:08:05.920Z,45.43
2018-03-03T10:10:33.374Z,46.17
2018-03-03T10:13:00.825Z,45.63
2018-03-03T10:15:28.281Z,45.80
2018-03-03T10:17:56.125Z,44.80
2018-03-03T10:20:25.125Z,46.37
2018-03-03T10:22:53.534Z,46.97
2018-03-03T10:25:21.597Z,43.83
2018-03-03T10:27:49.057Z,45.43
2018-03-03T10:30:16.510Z,46.60
2018-03-03T10:32:43.977Z,47.17
2018-03-03T10:35:11.435Z,45.47
2018-03-03T10:37:38.904Z,45.83
2018-03-03T10:40:06.357Z,47.43
2018-03-03T10:42:33.813Z,47.27
2018-03-03T10:45:01.337Z,46.77
2018-03-03T10:47:28.789Z,46.20
2018-03-03T10:49:57.393Z,46.00
2018-03-03T10:52:24.849Z,45.70
2018-03-03T10:54:52.308Z,44.67
2018-03-03T10:57:19.762Z,44.77
2018-03-03T10:59:47.642Z,43.97
2018-03-03T11:02:15.551Z,45.70
2018-03-03T11:04:43.773Z,44.57
2018-03-03T11:07:11.226Z,45.90
2018-03-03T11:09:39.046Z,45.50
2018-03-03T11:12:07.272Z,44.63
2018-03-03T11:14:34.730Z,46.07
2018-03-03T11:17:02.181Z,44.07
2018-03-03T11:19:29.646Z,45.23
2018-03-03T11:21:57.113Z,44.67
2018-03-03T11:24:24.794Z,43.60
2018-03-03T11:26:52.551Z,45.03
2018-03-03T11:29:20.001Z,43.60
2018-03-03T11:31:47.449Z,45.20
2018-03-03T11:34:14.913Z,46.30
2018-03-03T11:36:42.806Z,46.07
2018-03-03T11:39:11.030Z,45.30
2018-03-03T11:41:38.793Z,43.77
2018-03-03T11:44:06.266Z,44.60
2018-03-03T11:46:34.406Z,43.60
2018-03-03T11:49:02.533Z,45.23
2018-03-03T11:51:30.001Z,45.00
2018-03-03T11:53:58.209Z,46.73
2018-03-03T11:56:25.669Z,46.63
2018-03-03T11:58:53.530Z,46.53
2018-03-03T12:01:21.401Z,42.80
2018-03-03T12:03:50.758Z,44.67
2018-03-03T12:06:18.226Z,45.23
2018-03-03T12:08:48.292Z,46.57
2018-03-03T12:11:15.752Z,44.40
2018-03-03T12:13:43.331Z,44.50
2018-03-03T12:16:10.788Z,46.30
2018-03-03T12:18:38.237Z,42.57
2018-03-03T12:21:05.706Z,43.97
2018-03-03T12:23:33.267Z,43.00
2018-03-03T12:26:00.717Z,44.67
2018-03-03T12:28:28.603Z,45.40
2018-03-03T12:30:56.847Z,45.73
2018-03-03T12:33:24.322Z,44.73
2018-03-03T12:35:51.773Z,45.87
2018-03-03T12:38:19.225Z,44.57
2018-03-03T12:40:46.705Z,47.73
2018-03-03T12:43:14.922Z,45.93
2018-03-03T12:45:43.593Z,46.23
2018-03-03T12:48:11.791Z,48.47
2018-03-03T12:50:39.244Z,45.37
2018-03-03T12:53:07.453Z,47.60
2018-03-03T12:55:34.929Z,43.43
2018-03-03T12:58:03.142Z,44.10
2018-03-03T13:00:30.597Z,44.77
2018-03-03T13:02:58.164Z,46.93
2018-03-03T13:05:25.645Z,45.63
2018-03-03T13:07:53.513Z,48.07
2018-03-03T13:10:20.991Z,43.87
2018-03-03T13:12:49.262Z,44.23
2018-03-03T13:15:16.650Z,44.03
2018-03-03T13:17:44.112Z,49.40
2018-03-03T13:20:11.575Z,42.60
2018-03-03T13:22:39.020Z,43.60
2018-03-03T13:25:06.802Z,42.83
2018-03-03T13:27:34.270Z,42.77
2018-03-03T13:30:02.129Z,44.40
2018-03-03T13:32:29.638Z,38.93
2018-03-03T13:34:57.849Z,39.17
2018-03-03T13:37:25.346Z,44.13
2018-03-03T13:39:53.071Z,43.50
2018-03-03T13:42:20.513Z,42.10
2018-03-03T13:44:47.970Z,41.60
2018-03-03T13:47:15.424Z,39.20
2018-03-03T13:49:42.881Z,42.53
2018-03-03T13:52:10.334Z,42.70
2018-03-03T13:54:37.923Z,39.27
2018-03-03T13:57:20.125Z,38.67
2018-03-03T13:59:47.575Z,39.23
2018-03-03T14:02:15.038Z,39.37
2018-03-03T14:04:43.125Z,40.53
2018-03-03T14:07:10.578Z,42.30
2018-03-03T14:09:38.029Z,40.90
2018-03-03T14:12:06.030Z,39.63
2018-03-03T14:14:36.381Z,38.00
2018-03-03T14:17:03.831Z,41.60
2018-03-03T14:19:31.720Z,40.70
2018-03-03T14:22:00.448Z,40.40
2018-03-03T14:24:27.891Z,40.37
2018-03-03T14:26:55.341Z,39.03
2018-03-03T14:29:22.793Z,39.20
2018-03-03T14:31:50.973Z,41.13
2018-03-03T14:34:18.425Z,42.93
2018-03-03T14:36:45.912Z,41.17
2018-03-03T14:39:14.137Z,40.50
2018-03-03T14:41:41.586Z,39.77
2018-03-03T14:44:09.051Z,42.03
2018-03-03T14:46:36.522Z,40.30
2018-03-03T14:49:04.520Z,41.23
2018-03-03T14:51:32.745Z,39.30
2018-03-03T14:54:00.204Z,40.33
2018-03-03T14:56:27.695Z,45.20
2018-03-03T14:58:55.232Z,41.90
2018-03-03T15:01:23.111Z,44.27
2018-03-03T15:03:50.561Z,38.77
2018-03-03T15:06:18.026Z,41.90
2018-03-03T15:08:45.639Z,42.40
2018-03-03T15:11:13.097Z,41.57
2018-03-03T15:13:40.554Z,41.67
2018-03-03T15:16:08.010Z,40.53
2018-03-03T15:18:35.471Z,39.10
2018-03-03T15:21:02.928Z,40.93
2018-03-03T15:23:30.378Z,40.13
2018-03-03T15:25:58.379Z,39.17
2018-03-03T15:28:25.833Z,40.23
2018-03-03T15:30:53.290Z,40.53
2018-03-03T15:33:20.814Z,42.33
2018-03-03T15:35:48.731Z,43.93
2018-03-03T15:38:16.181Z,41.87
2018-03-03T15:40:44.125Z,41.77
2018-03-03T15:43:11.581Z,42.30
2018-03-03T15:45:39.043Z,42.10
2018-03-03T15:48:06.498Z,41.87
2018-03-03T15:50:33.958Z,42.03
2018-03-03T15:53:01.405Z,42.50
2018-03-03T15:55:28.864Z,43.53
2018-03-03T15:57:56.318Z,40.93
2018-03-03T16:00:23.766Z,45.03
2018-03-03T16:02:51.214Z,41.60
2018-03-03T16:05:18.765Z,41.17
2018-03-03T16:07:46.210Z,41.17
2018-03-03T16:10:13.673Z,42.00
2018-03-03T16:12:41.116Z,43.20
2018-03-03T16:15:08.594Z,41.50
2018-03-03T16:17:36.056Z,43.17
2018-03-03T16:20:03.501Z,40.43
2018-03-03T16:22:31.379Z,42.33
2018-03-03T16:24:58.834Z,41.20
2018-03-03T16:27:26.282Z,41.43
2018-03-03T16:29:53.738Z,42.13
2018-03-03T16:32:21.202Z,41.73
2018-03-03T16:34:48.657Z,42.17
2018-03-03T16:37:16.106Z,40.23
2018-03-03T16:39:43.566Z,42.33
2018-03-03T16:42:11.529Z,43.00
2018-03-03T16:44:38.992Z,41.73
2018-03-03T16:47:06.453Z,44.70
2018-03-03T16:49:33.910Z,43.67
2018-03-03T16:52:01.361Z,43.27
2018-03-03T16:54:28.824Z,44.97
2018-03-03T16:56:56.272Z,44.23
2018-03-03T16:59:23.727Z,45.53
2018-03-03T17:01:51.585Z,43.20
2018-03-03T17:04:19.028Z,45.30
2018-03-03T17:06:46.931Z,43.33
2018-03-03T17:09:14.394Z,45.97
2018-03-03T17:11:41.862Z,42.73
2018-03-03T17:14:09.322Z,44.80
2018-03-03T17:16:36.779Z,46.17
2018-03-03T17:19:04.237Z,45.47
2018-03-03T17:21:31.700Z,44.03
2018-03-03T17:23:59.166Z,45.53
2018-03-03T17:26:27.668Z,46.07
2018-03-03T17:28:55.881Z,45.37
2018-03-03T17:31:23.350Z,44.50
2018-03-03T17:33:52.127Z,46.47
2018-03-03T17:36:19.594Z,45.50
2018-03-03T17:38:47.117Z,46.63
2018-03-03T17:41:14.578Z,45.90
2018-03-03T17:43:42.466Z,45.37
2018-03-03T17:46:11.588Z,48.97
2018-03-03T17:48:39.045Z,44.83
2018-03-03T17:51:06.938Z,45.30
2018-03-03T17:53:34.398Z,45.07
2018-03-03T17:56:02.395Z,46.50
2018-03-03T17:58:30.097Z,45.13
2018-03-03T18:00:58.120Z,45.77
2018-03-03T18:03:25.801Z,48.17
2018-03-03T18:05:53.267Z,47.83
2018-03-03T18:08:22.299Z,47.53
2018-03-03T18:10:50.526Z,47.60
2018-03-03T18:13:19.428Z,49.43
2018-03-03T18:15:47.319Z,47.97
2018-03-03T18:18:16.072Z,48.00
2018-03-03T18:20:44.250Z,47.67
2018-03-03T18:23:11.701Z,47.30
2018-03-03T18:25:39.870Z,43.63
2018-03-03T18:28:13.975Z,46.33
2018-03-03T18:30:41.434Z,45.83
2018-03-03T18:33:08.894Z,45.70
2018-03-03T18:35:36.365Z,46.67
2018-03-03T18:38:03.819Z,44.13
2018-03-03T18:40:31.274Z,43.27
2018-03-03T18:42:59.262Z,45.87
2018-03-03T18:45:27.485Z,50.03
2018-03-03T18:47:54.953Z,48.73
2018-03-03T18:50:22.418Z,47.73
2018-03-03T18:52:51.402Z,45.47
2018-03-03T18:55:19.182Z,46.30
2018-03-03T18:57:47.185Z,44.67
2018-03-03T19:00:15.409Z,42.87
2018-03-03T19:02:42.873Z,44.23
2018-03-03T19:05:10.332Z,44.33
2018-03-03T19:07:37.827Z,46.53
2018-03-03T19:10:06.044Z,47.43
2018-03-03T19:12:33.520Z,47.13
2018-03-03T19:15:00.986Z,45.20
2018-03-03T19:17:28.797Z,45.93
2018-03-03T19:19:56.254Z,44.70
2018-03-03T19:22:24.253Z,43.90
2018-03-03T19:24:51.714Z,45.77
2018-03-03T19:27:19.172Z,46.27
2018-03-03T19:29:46.660Z,45.53
2018-03-03T19:32:14.894Z,46.13
2018-03-03T19:34:42.344Z,46.27
2018-03-03T19:37:10.294Z,47.13
2018-03-03T19:39:37.747Z,45.63
2018-03-03T19:42:05.198Z,45.67
2018-03-03T19:44:32.674Z,46.37
2018-03-03T19:47:00.835Z,46.60
2018-03-03T19:49:28.283Z,45.67
2018-03-03T19:51:56.174Z,47.20
2018-03-03T19:54:23.643Z,49.50
2018-03-03T19:56:51.114Z,47.80
2018-03-03T19:59:19.303Z,47.93
2018-03-03T20:01:46.753Z,47.93
2018-03-03T20:04:14.226Z,43.87
2018-03-03T20:06:42.450Z,47.70
2018-03-03T20:09:09.909Z,46.87
2018-03-03T20:11:37.980Z,48.77
2018-03-03T20:14:05.834Z,50.17
2018-03-03T20:16:33.307Z,49.43
2018-03-03T20:19:01.035Z,48.50
2018-03-03T20:21:29.283Z,48.90
2018-03-03T20:23:58.141Z,51.27
2018-03-03T20:26:26.165Z,49.77
2018-03-03T20:28:56.561Z,50.80
2018-03-03T20:31:24.170Z,51.37
2018-03-03T20:33:52.002Z,52.90
2018-03-03T20:36:20.636Z,54.47
2018-03-03T20:38:48.097Z,54.80
2018-03-03T20:41:15.555Z,52.60
2018-03-03T20:43:44.006Z,55.00
2018-03-03T20:46:11.466Z,54.37
2018-03-03T20:48:38.924Z,52.73
2018-03-03T20:51:06.377Z,50.13
2018-03-03T20:53:33.835Z,54.37
2018-03-03T20:56:01.298Z,50.27
2018-03-03T20:58:28.754Z,55.40
2018-03-03T21:00:56.214Z,52.37
2018-03-03T21:03:23.663Z,54.20
2018-03-03T21:05:51.126Z,55.37
2018-03-03T21:08:18.581Z,55.67
2018-03-03T21:10:46.559Z,59.17
2018-03-03T21:13:14.139Z,58.30
2018-03-03T21:15:41.598Z,59.67
2018-03-03T21:18:09.060Z,55.53
2018-03-03T21:20:36.606Z,59.87
2018-03-03T21:23:04.068Z,56.43
2018-03-03T21:25:31.538Z,55.07
2018-03-03T21:27:59.010Z,58.27
2018-03-03T21:30:28.249Z,55.73
2018-03-03T21:32:55.879Z,56.17
2018-03-03T21:35:23.352Z,54.83
2018-03-03T21:37:50.823Z,55.20
2018-03-03T21:40:18.334Z,56.03
2018-03-03T21:42:46.558Z,54.63
2018-03-03T21:45:15.942Z,55.83
2018-03-03T21:47:43.397Z,54.43
2018-03-03T21:50:10.858Z,55.37
2018-03-03T21:52:38.322Z,55.93
2018-03-03T21:55:05.789Z,54.30
2018-03-03T21:57:33.250Z,55.57
2018-03-03T22:00:00.730Z,53.57
2018-03-03T22:02:28.181Z,55.33
2018-03-03T22:04:55.663Z,53.17
2018-03-03T22:07:23.902Z,54.80
2018-03-03T22:09:51.384Z,52.00
2018-03-03T22:12:19.632Z,55.77
2018-03-03T22:14:47.479Z,53.00
2018-03-03T22:17:15.288Z,55.27
2018-03-03T22:19:42.752Z,55.57
2018-03-03T22:22:10.982Z,52.73
2018-03-03T22:24:38.456Z,54.37
2018-03-03T22:27:05.936Z,56.50
2018-03-03T22:29:34.175Z,55.17
2018-03-03T22:32:01.662Z,52.33
2018-03-03T22:34:29.929Z,53.90
2018-03-03T22:36:57.393Z,55.97
2018-03-03T22:39:25.641Z,56.80
2018-03-03T22:41:53.850Z,58.47
2018-03-03T22:44:22.200Z,52.80
2018-03-03T22:46:49.654Z,57.33
2018-03-03T22:49:17.117Z,57.60
2018-03-03T22:51:45.491Z,55.97
2018-03-03T22:54:13.523Z,55.87
2018-03-03T22:56:40.977Z,58.93
2018-03-03T22:59:09.122Z,57.93
2018-03-03T23:01:36.591Z,56.20
2018-03-03T23:04:04.633Z,54.47
2018-03-03T23:06:32.873Z,55.63
2018-03-03T23:09:01.127Z,55.77
2018-03-03T23:11:28.923Z,56.43
2018-03-03T23:13:56.374Z,57.17
2018-03-03T23:16:24.014Z,56.87
2018-03-03T23:18:51.464Z,56.60
2018-03-03T23:21:18.946Z,56.63
2018-03-03T23:23:46.410Z,59.57
2018-03-03T23:26:13.865Z,58.57
2018-03-03T23:28:41.900Z,56.40
2018-03-03T23:31:09.366Z,57.67
2018-03-03T23:33:36.835Z,56.90
2018-03-03T23:36:04.300Z,57.23
2018-03-03T23:38:31.762Z,56.23
2018-03-03T23:40:59.221Z,61.70
2018-03-03T23:43:26.692Z,57.00
2018-03-03T23:45:54.974Z,61.63
2018-03-03T23:48:23.697Z,61.43
2018-03-03T23:50:51.439Z,59.30
2018-03-03T23:53:19.682Z,59.33
2018-03-03T23:55:47.709Z,56.70
2018-03-03T23:58:15.169Z,60.37
